Time;durP1;ratioP1;P1;durP2;ratioP2;P2;SDS_P1;SDS_P2;PMS_P1;PMS_P2;Temp;Humidity;BMP_temperature;BMP_pressure;BME280_temperature;BME280_humidity;BME280_pressure;Samples;Min_cycle;Max_cycle;Signal;HPM_P1;HPM_P2
2022/12/04 00:01:11;;;;;;;7.95;3.78;;;;;;;;;;4975603;28;20045;-72
2022/12/04 00:03:37;;;;;;;11.15;3.75;;;;;;;;;;4986748;28;20038;-73
2022/12/04 00:06:08;;;;;;;7.57;2.75;;;;;;;;;;4974433;28;20038;-72
2022/12/04 00:08:34;;;;;;;11.05;4.20;;;;;;;;;;4988898;28;20046;-72
2022/12/04 00:10:59;;;;;;;12.65;4.30;;;;;;;;;;4990422;28;20034;-72
2022/12/04 00:13:26;;;;;;;12.40;4.10;;;;;;;;;;4984975;28;20105;-73
2022/12/04 00:15:51;;;;;;;8.27;3.92;;;;;;;;;;4982976;28;20066;-72
2022/12/04 00:18:17;;;;;;;7.82;3.33;;;;;;;;;;4986941;28;20046;-73
2022/12/04 00:20:42;;;;;;;6.50;3.17;;;;;;;;;;4989418;28;20045;-72
2022/12/04 00:23:08;;;;;;;10.55;3.00;;;;;;;;;;4986439;28;20074;-72
2022/12/04 00:25:33;;;;;;;9.32;3.40;;;;;;;;;;4992873;28;20482;-72
2022/12/04 00:27:58;;;;;;;8.05;2.95;;;;;;;;;;4994577;28;20031;-72
2022/12/04 00:30:24;;;;;;;11.25;3.33;;;;;;;;;;4991205;28;20070;-72
2022/12/04 00:32:49;;;;;;;12.18;3.90;;;;;;;;;;4984745;28;20146;-73
2022/12/04 00:35:15;;;;;;;7.80;3.05;;;;;;;;;;4983354;28;20585;-72
2022/12/04 00:37:40;;;;;;;7.57;2.42;;;;;;;;;;4990011;28;20049;-72
2022/12/04 00:40:06;;;;;;;8.02;3.28;;;;;;;;;;4986668;28;20077;-73
2022/12/04 00:42:31;;;;;;;6.35;3.33;;;;;;;;;;4977159;28;20463;-72
2022/12/04 00:44:57;;;;;;;7.90;3.28;;;;;;;;;;4984717;28;20031;-72
2022/12/04 00:47:22;;;;;;;6.30;3.40;;;;;;;;;;4983052;28;20050;-72
2022/12/04 00:49:47;;;;;;;10.50;3.45;;;;;;;;;;4981243;28;20039;-72
2022/12/04 00:52:13;;;;;;;9.93;3.60;;;;;;;;;;4986649;28;20061;-73
2022/12/04 00:54:38;;;;;;;12.25;3.90;;;;;;;;;;4978482;28;20138;-72
2022/12/04 00:57:03;;;;;;;12.02;4.22;;;;;;;;;;4986312;28;20470;-72
2022/12/04 00:59:29;;;;;;;17.77;4.18;;;;;;;;;;4979309;28;20036;-72
2022/12/04 01:01:54;;;;;;;9.52;3.58;;;;;;;;;;4977008;28;20070;-73
2022/12/04 01:04:20;;;;;;;13.85;4.10;;;;;;;;;;4988599;28;20038;-72
2022/12/04 01:06:45;;;;;;;9.57;3.17;;;;;;;;;;4987076;28;20050;-73
2022/12/04 01:09:11;;;;;;;11.02;4.78;;;;;;;;;;4987805;28;20038;-73
2022/12/04 01:11:37;;;;;;;9.20;4.70;;;;;;;;;;4984638;28;20065;-72
2022/12/04 01:14:03;;;;;;;14.30;4.38;;;;;;;;;;4982390;28;20121;-72
2022/12/04 01:16:34;;;;;;;18.23;5.03;;;;;;;;;;4987135;28;20118;-73
2022/12/04 01:19:00;;;;;;;10.88;3.67;;;;;;;;;;4990805;28;20088;-72
2022/12/04 01:21:25;;;;;;;9.93;4.80;;;;;;;;;;4992053;28;20043;-72
2022/12/04 01:23:51;;;;;;;11.65;3.80;;;;;;;;;;4986953;28;20118;-72
2022/12/04 01:26:16;;;;;;;10.77;4.72;;;;;;;;;;4979093;28;20031;-72
2022/12/04 01:28:42;;;;;;;11.38;4.30;;;;;;;;;;4982694;28;20070;-72
2022/12/04 01:31:10;;;;;;;9.82;5.30;;;;;;;;;;4981357;28;20045;-72
2022/12/04 01:33:36;;;;;;;19.95;4.32;;;;;;;;;;4989498;28;20058;-72
2022/12/04 01:36:04;;;;;;;14.88;5.13;;;;;;;;;;4986406;28;20077;-72
2022/12/04 01:38:29;;;;;;;12.05;4.78;;;;;;;;;;4988863;28;20086;-72
2022/12/04 01:40:55;;;;;;;12.07;2.58;;;;;;;;;;4987354;28;20049;-72
2022/12/04 01:43:21;;;;;;;11.10;5.28;;;;;;;;;;4984495;28;20118;-73
2022/12/04 01:45:58;;;;;;;9.60;5.03;;;;;;;;;;4985885;28;20080;-73
2022/12/04 01:48:29;;;;;;;8.55;4.25;;;;;;;;;;4981683;28;20507;-72
2022/12/04 01:51:06;;;;;;;15.23;5.22;;;;;;;;;;4976396;28;20108;-72
2022/12/04 01:53:33;;;;;;;10.52;4.53;;;;;;;;;;4981474;28;20031;-72
2022/12/04 01:56:00;;;;;;;13.77;5.28;;;;;;;;;;4979128;28;20111;-72
2022/12/04 01:58:31;;;;;;;12.52;5.72;;;;;;;;;;4977920;28;20042;-72
2022/12/04 02:01:01;;;;;;;12.32;5.13;;;;;;;;;;4982584;28;20065;-73
2022/12/04 02:03:27;;;;;;;17.15;5.60;;;;;;;;;;4984168;28;20117;-72
2022/12/04 02:05:52;;;;;;;15.35;4.95;;;;;;;;;;4981473;28;20043;-72
2022/12/04 02:08:18;;;;;;;7.30;4.30;;;;;;;;;;4988281;28;20042;-72
2022/12/04 02:11:00;;;;;;;12.77;5.43;;;;;;;;;;4985277;28;20035;-72
2022/12/04 02:13:33;;;;;;;15.68;4.60;;;;;;;;;;4976988;28;20026;-72
2022/12/04 02:16:01;;;;;;;10.23;5.22;;;;;;;;;;4982200;28;20046;-72
2022/12/04 02:18:55;;;;;;;12.38;5.68;;;;;;;;;;4980579;28;20026;-72
2022/12/04 02:21:30;;;;;;;16.33;5.43;;;;;;;;;;4977557;28;20069;-72
2022/12/04 02:23:59;;;;;;;13.18;4.55;;;;;;;;;;4980332;28;20031;-73
2022/12/04 02:26:43;;;;;;;11.15;3.83;;;;;;;;;;4982331;28;20100;-72
2022/12/04 02:29:23;;;;;;;3.65;2.10;;;;;;;;;;4979583;28;20046;-72
2022/12/04 02:31:58;;;;;;;15.57;4.47;;;;;;;;;;4980661;28;20101;-73
2022/12/04 02:34:43;;;;;;;10.23;4.03;;;;;;;;;;4982232;28;20034;-72
2022/12/04 02:37:13;;;;;;;12.77;4.63;;;;;;;;;;4982986;28;20042;-72
2022/12/04 02:39:41;;;;;;;12.10;4.82;;;;;;;;;;4973024;28;20058;-72
2022/12/04 02:42:14;;;;;;;9.93;4.40;;;;;;;;;;4989001;28;20058;-72
2022/12/04 02:44:46;;;;;;;19.73;4.70;;;;;;;;;;4982663;28;20060;-72
2022/12/04 02:47:15;;;;;;;7.88;3.72;;;;;;;;;;4980089;28;20051;-72
2022/12/04 02:49:50;;;;;;;10.75;4.35;;;;;;;;;;4979220;28;20422;-72
2022/12/04 02:52:20;;;;;;;18.23;4.68;;;;;;;;;;4975081;28;20042;-72
2022/12/04 02:54:49;;;;;;;10.15;4.85;;;;;;;;;;4981067;28;20042;-72
2022/12/04 02:57:21;;;;;;;8.13;4.20;;;;;;;;;;4978332;28;20049;-72
2022/12/04 02:59:48;;;;;;;14.65;4.40;;;;;;;;;;4978551;28;20045;-72
2022/12/04 03:02:22;;;;;;;10.25;4.60;;;;;;;;;;4958954;28;20062;-72
2022/12/04 03:04:49;;;;;;;8.05;3.90;;;;;;;;;;4978566;28;20088;-72
2022/12/04 03:07:19;;;;;;;16.90;4.28;;;;;;;;;;4990379;28;20390;-73
2022/12/04 03:09:49;;;;;;;11.55;3.63;;;;;;;;;;4975180;28;20027;-72
2022/12/04 03:12:20;;;;;;;9.30;3.15;;;;;;;;;;4982060;28;20086;-74
2022/12/04 03:15:03;;;;;;;7.13;3.40;;;;;;;;;;5010642;28;20044;-72
2022/12/04 03:17:34;;;;;;;10.52;3.28;;;;;;;;;;4977599;28;20077;-72
2022/12/04 03:20:04;;;;;;;12.05;3.70;;;;;;;;;;4983974;28;20042;-72
2022/12/04 03:22:30;;;;;;;15.95;4.18;;;;;;;;;;4991131;28;20486;-73
2022/12/04 03:24:56;;;;;;;8.52;3.90;;;;;;;;;;4985693;28;20085;-72
2022/12/04 03:27:41;;;;;;;12.95;3.50;;;;;;;;;;4990354;28;20026;-72
2022/12/04 03:30:09;;;;;;;9.70;3.13;;;;;;;;;;4987353;28;20042;-73
2022/12/04 03:32:43;;;;;;;6.32;2.50;;;;;;;;;;4984747;28;20035;-72
2022/12/04 03:35:18;;;;;;;7.13;2.65;;;;;;;;;;5005896;28;20051;-73
2022/12/04 03:37:53;;;;;;;9.10;2.38;;;;;;;;;;4987736;28;20034;-72
2022/12/04 03:40:39;;;;;;;10.35;3.25;;;;;;;;;;4989528;28;20034;-73
2022/12/04 03:43:13;;;;;;;10.30;3.33;;;;;;;;;;4977418;28;20455;-72
2022/12/04 03:45:46;;;;;;;7.05;2.95;;;;;;;;;;4985335;28;20514;-72
2022/12/04 03:48:50;;;;;;;8.15;2.88;;;;;;;;;;4989473;28;20133;-73
2022/12/04 03:51:24;;;;;;;5.85;2.63;;;;;;;;;;4985780;28;20055;-72
2022/12/04 03:54:03;;;;;;;4.22;2.50;;;;;;;;;;4987073;28;20098;-73
2022/12/04 03:56:32;;;;;;;13.80;3.03;;;;;;;;;;4981579;28;20042;-72
2022/12/04 03:59:02;;;;;;;6.63;2.75;;;;;;;;;;4985962;28;20027;-72
2022/12/04 04:01:33;;;;;;;9.90;3.00;;;;;;;;;;4978492;28;20039;-73
2022/12/04 04:03:59;;;;;;;6.95;2.47;;;;;;;;;;4982135;28;20043;-72
2022/12/04 04:06:29;;;;;;;8.15;2.63;;;;;;;;;;4988871;28;20458;-72
2022/12/04 04:08:57;;;;;;;7.05;3.08;;;;;;;;;;4986567;28;20030;-72
2022/12/04 04:11:27;;;;;;;6.00;2.75;;;;;;;;;;4984151;28;20052;-72
2022/12/04 04:25:06;;;;;;;4.80;2.22;;;;;;;;;;4979746;28;20057;-72
2022/12/04 04:27:32;;;;;;;7.80;2.17;;;;;;;;;;4988551;28;20125;-72
2022/12/04 04:29:58;;;;;;;4.85;2.50;;;;;;;;;;4982595;28;20126;-72
2022/12/04 04:32:26;;;;;;;6.20;2.70;;;;;;;;;;4981556;28;20035;-72
2022/12/04 04:35:14;;;;;;;7.40;2.97;;;;;;;;;;4979445;28;20093;-73
2022/12/04 04:37:52;;;;;;;11.75;3.13;;;;;;;;;;4981567;28;20051;-72
2022/12/04 04:40:24;;;;;;;12.65;3.70;;;;;;;;;;4978396;28;20137;-72
2022/12/04 04:42:59;;;;;;;7.50;2.78;;;;;;;;;;4975224;28;20090;-72
2022/12/04 04:45:43;;;;;;;5.72;2.92;;;;;;;;;;4982241;28;20554;-73
2022/12/04 04:48:13;;;;;;;7.18;3.08;;;;;;;;;;4988418;28;20483;-72
2022/12/04 04:50:38;;;;;;;6.85;2.78;;;;;;;;;;4990533;28;20044;-72
2022/12/04 04:53:11;;;;;;;7.80;3.10;;;;;;;;;;4990050;28;20475;-72
2022/12/04 04:55:37;;;;;;;7.90;3.33;;;;;;;;;;4976967;28;20045;-73
2022/12/04 04:58:07;;;;;;;4.57;2.55;;;;;;;;;;4989974;28;20111;-72
2022/12/04 05:00:32;;;;;;;9.05;3.25;;;;;;;;;;4986240;28;20241;-73
2022/12/04 05:02:58;;;;;;;7.47;3.35;;;;;;;;;;4991703;28;20038;-72
2022/12/04 05:05:23;;;;;;;9.50;3.35;;;;;;;;;;4986976;28;20034;-73
2022/12/04 05:07:49;;;;;;;7.05;3.08;;;;;;;;;;4987586;28;20034;-72
2022/12/04 05:10:14;;;;;;;8.68;2.80;;;;;;;;;;4988926;28;20043;-72
2022/12/04 05:12:39;;;;;;;10.35;3.50;;;;;;;;;;4989938;28;20022;-72
2022/12/04 05:15:05;;;;;;;7.70;2.45;;;;;;;;;;4992069;28;20085;-73
2022/12/04 05:17:33;;;;;;;7.47;3.25;;;;;;;;;;4982089;28;20042;-72
2022/12/04 05:19:59;;;;;;;9.73;3.08;;;;;;;;;;4977239;28;20034;-72
2022/12/04 05:22:32;;;;;;;9.55;3.05;;;;;;;;;;4991923;28;20371;-72
2022/12/04 05:24:58;;;;;;;8.80;3.95;;;;;;;;;;4987582;28;20037;-72
2022/12/04 05:27:25;;;;;;;5.72;3.20;;;;;;;;;;4990666;28;20042;-72
2022/12/04 05:29:52;;;;;;;7.05;3.58;;;;;;;;;;4986737;28;20038;-72
2022/12/04 05:32:18;;;;;;;9.90;3.67;;;;;;;;;;5003778;28;20034;-73
2022/12/04 05:34:43;;;;;;;3.97;2.28;;;;;;;;;;4986423;28;20476;-72
2022/12/04 05:37:09;;;;;;;14.00;4.43;;;;;;;;;;4983608;28;20365;-72
2022/12/04 05:39:34;;;;;;;10.15;3.67;;;;;;;;;;4980268;28;20467;-72
2022/12/04 05:41:59;;;;;;;9.18;4.60;;;;;;;;;;4980910;28;20046;-72
2022/12/04 05:44:25;;;;;;;13.20;4.82;;;;;;;;;;4979759;28;20040;-72
2022/12/04 05:46:50;;;;;;;6.13;3.10;;;;;;;;;;4986481;28;20054;-72
2022/12/04 05:49:16;;;;;;;11.82;3.33;;;;;;;;;;4984173;28;20042;-72
2022/12/04 05:51:41;;;;;;;7.47;3.65;;;;;;;;;;4982460;28;20018;-72
2022/12/04 05:54:06;;;;;;;10.73;4.93;;;;;;;;;;4987974;28;20089;-72
2022/12/04 05:56:32;;;;;;;16.50;4.47;;;;;;;;;;4990097;28;20145;-72
2022/12/04 05:58:57;;;;;;;9.57;4.53;;;;;;;;;;4988831;28;20158;-72
2022/12/04 06:01:23;;;;;;;8.13;3.97;;;;;;;;;;4976924;28;20039;-73
2022/12/04 06:03:49;;;;;;;11.32;4.90;;;;;;;;;;4988365;28;20122;-72
2022/12/04 06:06:17;;;;;;;9.35;5.15;;;;;;;;;;4985845;28;20066;-72
2022/12/04 06:08:42;;;;;;;10.50;4.90;;;;;;;;;;4989012;28;20030;-72
2022/12/04 06:11:16;;;;;;;11.57;4.80;;;;;;;;;;4981501;28;20035;-72
2022/12/04 06:13:43;;;;;;;11.43;4.45;;;;;;;;;;4978654;28;20513;-72
2022/12/04 06:16:13;;;;;;;12.80;4.88;;;;;;;;;;4980996;28;20042;-72
2022/12/04 06:18:38;;;;;;;13.13;4.93;;;;;;;;;;4978880;28;20061;-72
2022/12/04 06:21:04;;;;;;;16.13;5.13;;;;;;;;;;4977019;28;20538;-72
2022/12/04 06:23:29;;;;;;;9.85;4.18;;;;;;;;;;4984604;28;20035;-73
2022/12/04 06:25:54;;;;;;;16.90;4.70;;;;;;;;;;4982546;28;20041;-73
2022/12/04 06:28:20;;;;;;;10.52;4.88;;;;;;;;;;4984237;28;20402;-72
2022/12/04 06:30:45;;;;;;;9.63;4.47;;;;;;;;;;4982504;28;20034;-72
2022/12/04 06:33:11;;;;;;;6.35;3.75;;;;;;;;;;4987851;28;20073;-72
2022/12/04 06:35:36;;;;;;;13.43;4.70;;;;;;;;;;4984885;28;20078;-73
2022/12/04 06:38:01;;;;;;;8.27;4.05;;;;;;;;;;4987273;28;20070;-73
2022/12/04 06:40:27;;;;;;;6.03;3.25;;;;;;;;;;4984956;28;20057;-72
2022/12/04 06:42:52;;;;;;;9.40;4.18;;;;;;;;;;4985115;28;20455;-73
2022/12/04 06:45:17;;;;;;;11.07;5.07;;;;;;;;;;4981865;28;20035;-73
2022/12/04 06:47:43;;;;;;;9.43;4.35;;;;;;;;;;4982442;28;20055;-72
2022/12/04 06:50:08;;;;;;;8.02;4.30;;;;;;;;;;4984706;28;20034;-72
2022/12/04 06:52:34;;;;;;;11.63;4.25;;;;;;;;;;4994260;28;20062;-72
2022/12/04 06:54:59;;;;;;;11.38;4.60;;;;;;;;;;4987178;28;20060;-72
2022/12/04 06:57:25;;;;;;;9.55;4.28;;;;;;;;;;4989568;28;20044;-73
2022/12/04 06:59:50;;;;;;;11.23;4.90;;;;;;;;;;4991971;28;20383;-72
2022/12/04 07:02:15;;;;;;;12.85;5.22;;;;;;;;;;4980652;28;20061;-73
2022/12/04 07:04:41;;;;;;;15.45;5.55;;;;;;;;;;4993760;28;20435;-73
2022/12/04 07:07:09;;;;;;;11.48;4.85;;;;;;;;;;4985281;28;20045;-72
2022/12/04 07:09:34;;;;;;;10.95;4.20;;;;;;;;;;4983334;28;20077;-73
2022/12/04 07:11:59;;;;;;;10.70;4.32;;;;;;;;;;4991741;28;20042;-73
2022/12/04 07:14:25;;;;;;;13.52;4.45;;;;;;;;;;4994218;28;20038;-72
2022/12/04 07:16:50;;;;;;;13.45;5.40;;;;;;;;;;4991295;28;20125;-72
2022/12/04 07:19:16;;;;;;;13.05;5.30;;;;;;;;;;4980671;28;20039;-72
2022/12/04 07:21:42;;;;;;;15.73;5.78;;;;;;;;;;4980982;28;20035;-73
2022/12/04 07:24:12;;;;;;;13.10;5.07;;;;;;;;;;4988845;28;20102;-72
2022/12/04 07:26:38;;;;;;;9.40;5.22;;;;;;;;;;4978784;28;20043;-73
2022/12/04 07:29:03;;;;;;;9.50;4.15;;;;;;;;;;4987752;28;20081;-72
2022/12/04 07:31:29;;;;;;;9.27;3.92;;;;;;;;;;4989940;28;20391;-73
2022/12/04 07:33:54;;;;;;;14.43;4.78;;;;;;;;;;4992801;28;20045;-72
2022/12/04 07:36:21;;;;;;;12.57;5.28;;;;;;;;;;4986783;28;20047;-72
2022/12/04 07:38:47;;;;;;;17.40;5.53;;;;;;;;;;4990016;28;20034;-72
2022/12/04 07:41:13;;;;;;;13.88;5.57;;;;;;;;;;4987001;28;20104;-72
2022/12/04 07:43:39;;;;;;;16.30;5.65;;;;;;;;;;4991563;28;20533;-73
2022/12/04 07:46:07;;;;;;;10.95;5.55;;;;;;;;;;4986533;28;20066;-72
2022/12/04 07:48:32;;;;;;;11.30;5.18;;;;;;;;;;4992450;28;20054;-72
2022/12/04 07:51:27;;;;;;;12.48;4.88;;;;;;;;;;4988529;28;20058;-73
2022/12/04 07:53:52;;;;;;;12.32;5.50;;;;;;;;;;4974069;28;20051;-72
2022/12/04 07:56:19;;;;;;;18.35;5.55;;;;;;;;;;4987594;28;20062;-72
2022/12/04 07:58:45;;;;;;;9.60;4.72;;;;;;;;;;4977140;28;20031;-73
2022/12/04 08:01:19;;;;;;;8.27;5.15;;;;;;;;;;4977414;28;20418;-73
2022/12/04 08:03:46;;;;;;;9.00;4.75;;;;;;;;;;4988740;28;20533;-73
2022/12/04 08:06:11;;;;;;;11.80;5.20;;;;;;;;;;4980698;28;20038;-73
2022/12/04 08:08:37;;;;;;;13.63;5.13;;;;;;;;;;4985627;28;20065;-73
2022/12/04 08:11:07;;;;;;;12.57;4.90;;;;;;;;;;4982418;28;20402;-73
2022/12/04 08:13:32;;;;;;;11.38;5.55;;;;;;;;;;4977498;28;20453;-73
2022/12/04 08:16:03;;;;;;;10.48;4.80;;;;;;;;;;4977914;28;20030;-73
2022/12/04 08:18:29;;;;;;;12.63;4.82;;;;;;;;;;4918906;28;20043;-72
2022/12/04 08:21:19;;;;;;;17.48;5.15;;;;;;;;;;4963761;28;20055;-72
2022/12/04 08:23:46;;;;;;;11.18;5.45;;;;;;;;;;4979112;28;20031;-72
2022/12/04 08:26:12;;;;;;;11.95;4.95;;;;;;;;;;4983476;28;20046;-73
2022/12/04 08:28:38;;;;;;;13.23;5.47;;;;;;;;;;4988160;28;20487;-74
2022/12/04 08:31:05;;;;;;;11.20;4.00;;;;;;;;;;4978702;28;20525;-73
2022/12/04 08:33:31;;;;;;;9.88;5.35;;;;;;;;;;4985831;28;20087;-72
2022/12/04 08:35:57;;;;;;;18.73;5.35;;;;;;;;;;4899862;28;20515;-73
2022/12/04 08:38:23;;;;;;;13.10;5.78;;;;;;;;;;4998602;28;20093;-73
2022/12/04 08:40:48;;;;;;;11.57;5.22;;;;;;;;;;4988963;28;20046;-73
2022/12/04 08:43:13;;;;;;;12.55;4.93;;;;;;;;;;4923580;28;20133;-73
2022/12/04 08:45:39;;;;;;;16.20;5.63;;;;;;;;;;4985424;28;20152;-73
2022/12/04 08:48:05;;;;;;;10.02;4.88;;;;;;;;;;4979856;28;20534;-73
2022/12/04 08:50:30;;;;;;;9.02;3.67;;;;;;;;;;4988175;28;20050;-72
2022/12/04 08:52:55;;;;;;;14.75;5.53;;;;;;;;;;4980955;28;20055;-73
2022/12/04 08:55:21;;;;;;;8.93;4.40;;;;;;;;;;4982506;28;20047;-72
2022/12/04 08:57:46;;;;;;;11.43;4.78;;;;;;;;;;4925038;28;20035;-73
2022/12/04 09:00:14;;;;;;;9.68;4.72;;;;;;;;;;4855146;28;20134;-73
2022/12/04 09:02:39;;;;;;;9.40;5.00;;;;;;;;;;4976519;28;20525;-73
2022/12/04 09:05:05;;;;;;;12.90;4.65;;;;;;;;;;4973512;28;20110;-72
2022/12/04 09:07:30;;;;;;;9.27;4.28;;;;;;;;;;4979207;28;20387;-72
2022/12/04 09:09:56;;;;;;;12.35;4.30;;;;;;;;;;4975486;28;20034;-73
2022/12/04 09:12:21;;;;;;;9.90;4.13;;;;;;;;;;4980026;28;20066;-72
2022/12/04 09:14:47;;;;;;;12.93;4.55;;;;;;;;;;4979124;28;20422;-73
2022/12/04 09:17:12;;;;;;;12.05;4.53;;;;;;;;;;4764621;28;20138;-73
2022/12/04 09:19:37;;;;;;;10.75;4.28;;;;;;;;;;4986114;28;20562;-72
2022/12/04 09:22:03;;;;;;;8.70;4.25;;;;;;;;;;4989322;28;20367;-73
2022/12/04 09:24:29;;;;;;;8.15;4.57;;;;;;;;;;4983909;28;20065;-73
2022/12/04 09:26:55;;;;;;;6.75;3.58;;;;;;;;;;4984823;28;20050;-72
2022/12/04 09:29:20;;;;;;;13.25;5.35;;;;;;;;;;4821097;28;20061;-74
2022/12/04 09:31:46;;;;;;;8.30;4.22;;;;;;;;;;4975311;28;20053;-72
2022/12/04 09:34:11;;;;;;;14.80;5.25;;;;;;;;;;4770486;28;20050;-73
2022/12/04 09:36:37;;;;;;;12.70;5.03;;;;;;;;;;4979168;28;20061;-72
2022/12/04 09:39:03;;;;;;;10.20;4.50;;;;;;;;;;4979632;28;20419;-73
2022/12/04 09:41:31;;;;;;;10.43;4.85;;;;;;;;;;4982268;28;20117;-72
2022/12/04 09:44:21;;;;;;;12.30;4.57;;;;;;;;;;4983394;28;20383;-72
2022/12/04 09:47:28;;;;;;;11.57;4.72;;;;;;;;;;4974415;28;20055;-73
2022/12/04 09:50:10;;;;;;;12.00;4.75;;;;;;;;;;4972484;28;20046;-73
2022/12/04 09:52:55;;;;;;;9.50;3.45;;;;;;;;;;4981287;28;20046;-72
2022/12/04 09:55:27;;;;;;;10.63;4.47;;;;;;;;;;4989398;28;20034;-72
2022/12/04 09:57:56;;;;;;;18.15;5.43;;;;;;;;;;4972036;28;20038;-73
2022/12/04 10:00:22;;;;;;;12.00;4.57;;;;;;;;;;4990998;28;20030;-73
2022/12/04 10:02:52;;;;;;;11.95;4.45;;;;;;;;;;4986400;28;20133;-72
2022/12/04 10:05:25;;;;;;;12.77;4.97;;;;;;;;;;4986977;28;21084;-73
2022/12/04 10:08:09;;;;;;;13.75;4.70;;;;;;;;;;4990211;28;20037;-73
2022/12/04 10:10:39;;;;;;;9.00;4.05;;;;;;;;;;4988649;28;20046;-73
2022/12/04 10:13:26;;;;;;;8.65;4.50;;;;;;;;;;4974510;28;20398;-73
2022/12/04 10:15:56;;;;;;;14.25;4.53;;;;;;;;;;4964808;28;20042;-72
2022/12/04 10:18:33;;;;;;;12.32;3.85;;;;;;;;;;4988986;28;20030;-72
2022/12/04 10:21:37;;;;;;;9.23;3.40;;;;;;;;;;4981446;28;20045;-73
2022/12/04 10:24:21;;;;;;;13.70;5.77;;;;;;;;;;4977586;28;20142;-73
2022/12/04 10:26:47;;;;;;;12.93;5.13;;;;;;;;;;4981073;28;20264;-73
2022/12/04 10:29:22;;;;;;;8.48;4.13;;;;;;;;;;4984963;28;20054;-73
2022/12/04 10:31:48;;;;;;;23.75;4.85;;;;;;;;;;4982087;28;20130;-73
2022/12/04 10:34:25;;;;;;;12.15;5.35;;;;;;;;;;4977781;28;20406;-73
2022/12/04 10:36:53;;;;;;;8.35;4.72;;;;;;;;;;4983599;28;20050;-72
2022/12/04 10:39:29;;;;;;;11.23;5.78;;;;;;;;;;4987019;28;20491;-72
2022/12/04 10:42:16;;;;;;;12.07;5.68;;;;;;;;;;4972929;28;20509;-73
2022/12/04 10:44:41;;;;;;;14.85;5.97;;;;;;;;;;4981967;28;20026;-74
2022/12/04 10:47:09;;;;;;;16.05;5.72;;;;;;;;;;4988347;28;20418;-73
2022/12/04 10:49:36;;;;;;;12.35;6.13;;;;;;;;;;4991211;28;20038;-73
2022/12/04 10:52:02;;;;;;;16.88;6.25;;;;;;;;;;4985551;28;20031;-72
2022/12/04 10:54:36;;;;;;;12.75;6.45;;;;;;;;;;4985969;28;20041;-72
2022/12/04 10:57:04;;;;;;;11.68;5.53;;;;;;;;;;4985822;28;20030;-73
2022/12/04 10:59:30;;;;;;;8.60;4.05;;;;;;;;;;4986668;28;20045;-72
2022/12/04 11:02:21;;;;;;;9.32;4.55;;;;;;;;;;4979025;28;20030;-73
2022/12/04 11:04:55;;;;;;;15.07;7.00;;;;;;;;;;4979267;28;20394;-73
2022/12/04 11:07:41;;;;;;;;;;;;;;;;;;4989146;28;20038;-73
2022/12/04 11:10:21;;;;;;;13.70;5.72;;;;;;;;;;4970978;28;19918;-72
2022/12/04 11:12:58;;;;;;;13.68;5.78;;;;;;;;;;4986870;28;20410;-73
2022/12/04 11:15:24;;;;;;;15.18;7.50;;;;;;;;;;4973238;28;20050;-73
2022/12/04 11:17:51;;;;;;;17.52;7.20;;;;;;;;;;4986809;28;20034;-73
2022/12/04 11:20:21;;;;;;;17.40;7.50;;;;;;;;;;4982294;28;20034;-74
2022/12/04 11:22:55;;;;;;;20.13;6.85;;;;;;;;;;4986410;28;20088;-73
2022/12/04 11:25:23;;;;;;;19.42;6.38;;;;;;;;;;4967357;28;20427;-73
2022/12/04 11:27:51;;;;;;;21.05;8.30;;;;;;;;;;4982419;28;20046;-72
2022/12/04 11:30:34;;;;;;;15.40;7.30;;;;;;;;;;4991542;28;20038;-72
2022/12/04 11:33:00;;;;;;;14.18;6.80;;;;;;;;;;4982481;28;20093;-73
2022/12/04 11:35:28;;;;;;;19.25;7.85;;;;;;;;;;4986556;28;20054;-73
2022/12/04 11:38:00;;;;;;;16.98;7.18;;;;;;;;;;4985102;28;20398;-73
2022/12/04 11:40:26;;;;;;;10.70;5.15;;;;;;;;;;4966309;28;20437;-73
2022/12/04 11:43:17;;;;;;;22.27;7.63;;;;;;;;;;4983484;28;20122;-73
2022/12/04 11:46:00;;;;;;;19.05;7.50;;;;;;;;;;4968629;28;20054;-73
2022/12/04 11:48:28;;;;;;;14.48;6.00;;;;;;;;;;4981390;28;20490;-73
2022/12/04 11:51:04;;;;;;;29.20;8.05;;;;;;;;;;4980461;28;20035;-73
2022/12/04 11:53:55;;;;;;;24.05;7.95;;;;;;;;;;4978300;28;20039;-73
2022/12/04 11:56:36;;;;;;;18.42;8.25;;;;;;;;;;4988084;28;20062;-74
2022/12/04 11:59:23;;;;;;;21.70;9.50;;;;;;;;;;4984862;28;20035;-72
2022/12/04 12:01:55;;;;;;;17.25;7.47;;;;;;;;;;4979380;28;20043;-72
2022/12/04 12:04:23;;;;;;;22.08;9.27;;;;;;;;;;4982103;28;20471;-73
2022/12/04 12:07:07;;;;;;;23.08;8.90;;;;;;;;;;4984327;28;20422;-72
2022/12/04 12:09:38;;;;;;;19.42;9.18;;;;;;;;;;4978700;28;21424;-73
2022/12/04 12:12:30;;;;;;;20.10;9.02;;;;;;;;;;4986119;28;20116;-72
2022/12/04 12:15:18;;;;;;;15.52;7.57;;;;;;;;;;4986565;28;20054;-73
2022/12/04 12:17:48;;;;;;;23.10;8.68;;;;;;;;;;4986511;28;20051;-73
2022/12/04 12:20:30;;;;;;;25.83;9.55;;;;;;;;;;4983287;28;20049;-73
2022/12/04 12:23:35;;;;;;;21.80;8.90;;;;;;;;;;4981851;28;20395;-73
2022/12/04 12:26:07;;;;;;;24.63;7.67;;;;;;;;;;4956876;28;20199;-72
2022/12/04 12:29:09;;;;;;;28.50;9.60;;;;;;;;;;4975733;28;20035;-74
2022/12/04 12:32:03;;;;;;;13.18;6.70;;;;;;;;;;4981307;28;20479;-73
2022/12/04 12:34:36;;;;;;;21.52;9.95;;;;;;;;;;4989997;28;20180;-73
2022/12/04 12:37:09;;;;;;;18.30;8.35;;;;;;;;;;4969334;28;20045;-72
2022/12/04 12:39:39;;;;;;;23.35;9.80;;;;;;;;;;4982794;28;20445;-72
2022/12/04 12:42:08;;;;;;;13.32;5.18;;;;;;;;;;4979870;28;20057;-73
2022/12/04 12:44:39;;;;;;;21.52;9.82;;;;;;;;;;4982522;28;20484;-73
2022/12/04 12:47:08;;;;;;;19.67;9.45;;;;;;;;;;4967202;28;20511;-74
2022/12/04 12:49:48;;;;;;;21.58;9.40;;;;;;;;;;4975432;28;20043;-73
2022/12/04 12:52:18;;;;;;;21.73;10.07;;;;;;;;;;4956949;28;20054;-73
2022/12/04 12:54:53;;;;;;;25.88;10.57;;;;;;;;;;4967907;28;20066;-73
2022/12/04 12:57:27;;;;;;;27.55;11.98;;;;;;;;;;4968855;28;20045;-73
2022/12/04 12:59:57;;;;;;;22.23;9.27;;;;;;;;;;4981958;28;20031;-73
2022/12/04 13:02:35;;;;;;;24.77;10.32;;;;;;;;;;4979038;28;20380;-74
2022/12/04 13:05:08;;;;;;;23.70;9.82;;;;;;;;;;4982355;28;20492;-72
2022/12/04 13:07:36;;;;;;;27.33;10.23;;;;;;;;;;4986053;28;20062;-73
2022/12/04 13:10:05;;;;;;;31.15;10.68;;;;;;;;;;4990879;28;20065;-72
2022/12/04 13:12:43;;;;;;;27.98;11.38;;;;;;;;;;4979299;28;20105;-74
2022/12/04 13:15:13;;;;;;;22.58;9.85;;;;;;;;;;4983318;28;20045;-72
2022/12/04 13:17:39;;;;;;;27.77;10.70;;;;;;;;;;4970173;28;20879;-73
2022/12/04 13:20:08;;;;;;;26.05;10.20;;;;;;;;;;4975898;28;20031;-73
2022/12/04 13:22:50;;;;;;;21.63;9.90;;;;;;;;;;4979372;28;20046;-74
2022/12/04 13:25:33;;;;;;;27.83;11.85;;;;;;;;;;4973573;28;20500;-73
2022/12/04 13:28:22;;;;;;;20.90;10.30;;;;;;;;;;4979730;28;20069;-73
2022/12/04 13:30:56;;;;;;;25.27;10.82;;;;;;;;;;4974308;28;20372;-75
2022/12/04 13:33:34;;;;;;;21.05;9.15;;;;;;;;;;4985608;28;20034;-73
2022/12/04 13:36:25;;;;;;;28.48;10.75;;;;;;;;;;4984330;28;20042;-73
2022/12/04 13:39:06;;;;;;;21.55;10.65;;;;;;;;;;5009119;28;20093;-72
2022/12/04 13:41:35;;;;;;;20.65;9.60;;;;;;;;;;4982089;28;20763;-73
2022/12/04 13:44:01;;;;;;;23.38;10.98;;;;;;;;;;4984723;28;20558;-73
2022/12/04 13:46:35;;;;;;;25.42;10.98;;;;;;;;;;4982820;28;20039;-73
2022/12/04 13:49:07;;;;;;;23.42;11.38;;;;;;;;;;4971670;28;20114;-74
2022/12/04 13:51:37;;;;;;;25.38;10.95;;;;;;;;;;4965882;28;20039;-73
2022/12/04 13:54:26;;;;;;;29.67;10.73;;;;;;;;;;4978629;28;20086;-74
2022/12/04 13:56:56;;;;;;;24.38;11.40;;;;;;;;;;4979994;28;20058;-73
2022/12/04 13:59:26;;;;;;;26.70;11.25;;;;;;;;;;4979337;28;20133;-73
2022/12/04 14:01:59;;;;;;;28.23;12.23;;;;;;;;;;4982054;28;20526;-73
2022/12/04 14:04:29;;;;;;;25.48;11.23;;;;;;;;;;4998986;28;20034;-73
2022/12/04 14:06:57;;;;;;;24.05;10.77;;;;;;;;;;4985405;28;20038;-73
2022/12/04 14:09:42;;;;;;;28.90;11.35;;;;;;;;;;4985474;28;20039;-73
2022/12/04 14:12:11;;;;;;;27.52;11.65;;;;;;;;;;4980252;28;20051;-73
2022/12/04 14:14:55;;;;;;;26.80;11.50;;;;;;;;;;4979008;28;20427;-72
2022/12/04 14:17:27;;;;;;;21.75;10.38;;;;;;;;;;4983393;28;20547;-72
2022/12/04 14:19:59;;;;;;;28.52;11.57;;;;;;;;;;4977390;28;20096;-72
2022/12/04 14:22:33;;;;;;;24.63;11.27;;;;;;;;;;4973825;28;20077;-73
2022/12/04 14:25:11;;;;;;;23.00;10.88;;;;;;;;;;4985571;28;20033;-72
2022/12/04 14:27:39;;;;;;;24.33;10.73;;;;;;;;;;5020475;28;20502;-72
2022/12/04 14:30:10;;;;;;;23.73;11.48;;;;;;;;;;4992389;28;20066;-72
2022/12/04 14:32:39;;;;;;;22.00;10.85;;;;;;;;;;4979621;28;20039;-72
2022/12/04 14:35:21;;;;;;;25.70;11.93;;;;;;;;;;4975074;28;20035;-72
2022/12/04 14:37:53;;;;;;;26.48;10.90;;;;;;;;;;4985416;28;20546;-72
2022/12/04 14:40:24;;;;;;;24.77;11.07;;;;;;;;;;4977003;28;20035;-72
2022/12/04 14:42:50;;;;;;;25.83;12.60;;;;;;;;;;4977637;28;20034;-72
2022/12/04 14:45:37;;;;;;;25.58;11.65;;;;;;;;;;4978025;28;20487;-72
2022/12/04 14:48:10;;;;;;;24.38;10.88;;;;;;;;;;4971638;28;20051;-72
2022/12/04 14:51:07;;;;;;;26.47;10.83;;;;;;;;;;4980511;28;20046;-72
2022/12/04 14:54:14;;;;;;;23.90;11.90;;;;;;;;;;4976245;28;20483;-72
2022/12/04 14:57:17;;;;;;;24.50;11.45;;;;;;;;;;4979443;28;20046;-72
2022/12/04 14:59:45;;;;;;;28.27;12.50;;;;;;;;;;4978733;28;20074;-72
2022/12/04 15:02:14;;;;;;;25.10;12.07;;;;;;;;;;4978132;28;20031;-72
2022/12/04 15:04:44;;;;;;;25.63;11.98;;;;;;;;;;4980059;28;20109;-72
2022/12/04 15:07:20;;;;;;;23.45;11.10;;;;;;;;;;4980596;28;20038;-72